Time;durP1;ratioP1;P1;durP2;ratioP2;P2;SDS_P1;SDS_P2;PMS_P1;PMS_P2;Temp;Humidity;BMP_temperature;BMP_pressure;BME280_temperature;BME280_humidity;BME280_pressure;Samples;Min_cycle;Max_cycle;Signal;HPM_P1;HPM_P2
2022/09/26 00:01:31;;;;;;;;;;;;;;;7.14;82.74;98744.03;1781393;80;20112;-61
2022/09/26 00:04:04;;;;;;;;;;;;;;;7.21;82.76;98745.42;1781727;80;20589;-60
2022/09/26 00:06:31;;;;;;;;;;;;;;;7.28;82.78;98742.05;1757559;80;21218;-61
2022/09/26 00:08:57;;;;;;;;;;;;;;;7.34;82.78;98737.88;1785536;79;20189;-60
2022/09/26 00:11:27;;;;;;;;;;;;;;;7.42;82.91;98742.67;1783138;78;21164;-61
2022/09/26 00:13:55;;;;;;;;;;;;;;;7.49;82.96;98734.97;1780883;79;20126;-60
2022/09/26 00:16:23;;;;;;;;;;;;;;;7.57;82.99;98738.02;1776021;79;20456;-61
2022/09/26 00:18:50;;;;;;;;;;;;;;;7.62;83.05;98730.38;1777246;80;20954;-60
2022/09/26 00:21:17;;;;;;;;;;;;;;;7.71;83.01;98738.16;1758684;79;20086;-60
2022/09/26 00:23:44;;;;;;;;;;;;;;;7.77;83.08;98728.73;1782565;79;20111;-60
2022/09/26 00:26:11;;;;;;;;;;;;;;;7.83;83.09;98723.22;1780081;80;20173;-61
2022/09/26 00:28:38;;;;;;;;;;;;;;;7.91;83.15;98723.30;1789868;79;20130;-60
2022/09/26 00:31:07;;;;;;;;;;;;;;;7.97;83.21;98716.47;1785733;80;21085;-61
2022/09/26 00:33:34;;;;;;;;;;;;;;;8.02;83.24;98704.07;1786673;79;20524;-61
2022/09/26 00:36:01;;;;;;;;;;;;;;;8.09;83.40;98705.41;1783597;79;20123;-60
2022/09/26 00:38:28;;;;;;;;;;;;;;;8.16;83.35;98700.27;1784095;79;20156;-60
2022/09/26 00:40:54;;;;;;;;;;;;;;;8.21;83.38;98704.77;1781966;79;20512;-60
2022/09/26 00:43:33;;;;;;;;;;;;;;;8.26;83.31;98701.47;1790624;79;21099;-61
2022/09/26 00:46:33;;;;;;;;;;;;;;;8.32;83.33;98699.43;1781093;80;20184;-61
2022/09/26 00:49:26;;;;;;;;;;;;;;;8.37;83.35;98690.92;1787643;79;20168;-61
2022/09/26 00:51:56;;;;;;;;;;;;;;;8.43;83.41;98684.11;1786348;79;20086;-61
2022/09/26 00:54:23;;;;;;;;;;;;;;;8.48;83.45;98683.39;1779523;79;20206;-61
2022/09/26 00:56:51;;;;;;;;;;;;;;;8.53;83.49;98686.59;1788425;79;21860;-61
2022/09/26 00:59:23;;;;;;;;;;;;;;;8.59;83.56;98679.73;1781021;80;20096;-61
2022/09/26 01:01:51;;;;;;;;;;;;;;;8.64;83.56;98679.03;1780253;79;20180;-61
2022/09/26 01:04:19;;;;;;;;;;;;;;;8.70;83.60;98682.58;1785795;80;20409;-61
2022/09/26 01:06:45;;;;;;;;;;;;;;;8.76;83.60;98682.70;1783281;80;20100;-61
2022/09/26 01:09:13;;;;;;;;;;;;;;;8.82;83.58;98676.30;1781085;79;21818;-61
2022/09/26 01:11:41;;;;;;;;;;;;;;;8.89;83.63;98680.25;1777529;80;20529;-61
2022/09/26 01:14:10;;;;;;;;;;;;;;;8.94;83.65;98674.33;1774116;80;20464;-61
2022/09/26 01:16:37;;;;;;;;;;;;;;;8.99;83.68;98671.00;1785594;80;20913;-61
2022/09/26 01:19:07;;;;;;;;;;;;;;;9.05;83.68;98665.43;1783302;79;20257;-60
2022/09/26 01:21:37;;;;;;;;;;;;;;;9.12;83.71;98667.20;1788522;80;21156;-60
2022/09/26 01:24:13;;;;;;;;;;;;;;;9.17;83.69;98662.11;1782674;79;20186;-61
2022/09/26 01:26:51;;;;;;;;;;;;;;;9.23;83.69;98665.28;1784059;80;20263;-61
2022/09/26 01:29:51;;;;;;;;;;;;;;;9.30;83.67;98661.38;1785364;79;20539;-60
2022/09/26 01:32:48;;;;;;;;;;;;;;;9.34;83.68;98664.19;1756756;80;20094;-62
2022/09/26 01:35:46;;;;;;;;;;;;;;;9.38;83.69;98657.85;1751315;81;21123;-62
2022/09/26 01:38:43;;;;;;;;;;;;;;;9.43;83.72;98654.52;1755231;81;20167;-61
2022/09/26 01:41:25;;;;;;;;;;;;;;;9.46;83.69;98654.33;1754178;81;20157;-61
2022/09/26 01:44:15;;;;;;;;;;;;;;;9.51;83.77;98657.97;1753828;81;20673;-61
2022/09/26 01:46:56;;;;;;;;;;;;;;;9.51;83.69;98652.30;1756437;81;20559;-61
2022/09/26 01:51:28;;;;;;;;;;;;;;;9.62;83.81;98653.79;1823764;77;20271;-60
2022/09/26 01:54:05;;;;;;;;;;;;;;;9.60;83.76;98663.45;1806159;78;20082;-61
2022/09/26 01:56:35;;;;;;;;;;;;;;;9.63;83.77;98654.18;1803001;78;21217;-61
2022/09/26 01:59:07;;;;;;;;;;;;;;;9.66;83.79;98643.17;1803781;78;20103;-60
2022/09/26 02:01:37;;;;;;;;;;;;;;;9.69;83.79;98639.08;1804713;78;20177;-61
2022/09/26 02:04:07;;;;;;;;;;;;;;;9.69;83.74;98633.86;1803375;78;20144;-60
2022/09/26 02:06:46;;;;;;;;;;;;;;;9.69;83.75;98631.25;1799927;78;20138;-61
2022/09/26 02:09:18;;;;;;;;;;;;;;;9.69;83.76;98626.05;1771142;80;20520;-61
2022/09/26 02:11:47;;;;;;;;;;;;;;;9.69;83.76;98618.22;1745290;80;20124;-61
2022/09/26 02:14:31;;;;;;;;;;;;;;;9.70;83.82;98613.41;1744265;80;20194;-61
2022/09/26 02:17:21;;;;;;;;;;;;;;;9.70;83.83;98609.49;1767678;80;20118;-61
2022/09/26 02:20:00;;;;;;;;;;;;;;;9.71;83.82;98613.77;1767219;80;20149;-59
2022/09/26 02:22:30;;;;;;;;;;;;;;;9.70;83.90;98609.49;1750591;81;21333;-60
2022/09/26 02:24:57;;;;;;;;;;;;;;;9.72;83.94;98612.82;1751421;81;20201;-60
2022/09/26 02:27:25;;;;;;;;;;;;;;;9.72;83.97;98602.39;1751025;80;20188;-60
2022/09/26 02:29:51;;;;;;;;;;;;;;;9.72;83.98;98600.66;1761916;79;20108;-60
2022/09/26 02:32:29;;;;;;;;;;;;;;;9.73;83.98;98601.48;1755855;79;20131;-60
2022/09/26 02:34:56;;;;;;;;;;;;;;;9.73;83.92;98604.09;1756174;81;21151;-61
2022/09/26 02:37:23;;;;;;;;;;;;;;;9.74;83.96;98597.93;1756736;81;20864;-61
2022/09/26 02:39:51;;;;;;;;;;;;;;;9.72;83.99;98599.78;1742532;81;20496;-61
2022/09/26 02:42:27;;;;;;;;;;;;;;;9.71;84.01;98602.03;1753366;81;20518;-60
2022/09/26 02:45:03;;;;;;;;;;;;;;;9.71;84.01;98604.17;1754641;81;20199;-61
2022/09/26 02:47:59;;;;;;;;;;;;;;;9.71;84.02;98604.64;1752533;81;21144;-60
2022/09/26 02:50:41;;;;;;;;;;;;;;;9.70;84.05;98596.46;1747949;81;21292;-61
2022/09/26 02:53:35;;;;;;;;;;;;;;;9.71;84.08;98595.52;1748830;81;20102;-59
2022/09/26 02:56:22;;;;;;;;;;;;;;;9.71;84.05;98603.34;1648858;85;20209;-60
2022/09/26 02:58:58;;;;;;;;;;;;;;;9.70;84.04;98599.06;1683244;84;20218;-61
2022/09/26 03:01:28;;;;;;;;;;;;;;;9.69;84.03;98592.16;1679652;85;21029;-61
2022/09/26 03:04:07;;;;;;;;;;;;;;;9.70;84.11;98588.17;1681102;83;20115;-61
2022/09/26 03:06:37;;;;;;;;;;;;;;;9.70;84.12;98586.03;1678229;83;20516;-61
2022/09/26 03:09:04;;;;;;;;;;;;;;;9.68;84.12;98580.07;1678332;83;20210;-61
2022/09/26 03:11:32;;;;;;;;;;;;;;;9.67;84.13;98583.63;1645329;85;20151;-61
2022/09/26 03:13:59;;;;;;;;;;;;;;;9.67;84.11;98578.41;1681905;83;21086;-60
2022/09/26 03:16:28;;;;;;;;;;;;;;;9.62;84.04;98579.51;1678295;84;20178;-61
2022/09/26 03:19:04;;;;;;;;;;;;;;;9.60;84.05;98570.94;1679538;85;20147;-60
2022/09/26 03:21:31;;;;;;;;;;;;;;;9.59;84.04;98569.28;1678949;84;20168;-60
2022/09/26 03:23:58;;;;;;;;;;;;;;;9.57;84.03;98563.31;1679404;83;20472;-60
2022/09/26 03:26:26;;;;;;;;;;;;;;;9.56;84.06;98549.92;1694621;81;21774;-61
2022/09/26 03:28:55;;;;;;;;;;;;;;;9.53;84.02;98552.72;1750480;80;20131;-60
2022/09/26 03:31:24;;;;;;;;;;;;;;;9.51;84.05;98545.45;1755245;80;20101;-60
2022/09/26 03:33:51;;;;;;;;;;;;;;;9.49;84.00;98544.70;1760065;80;20511;-59
2022/09/26 03:36:18;;;;;;;;;;;;;;;9.47;84.01;98550.97;1734729;80;20198;-60
2022/09/26 03:38:44;;;;;;;;;;;;;;;9.45;84.04;98545.84;1734558;82;21183;-60
2022/09/26 03:41:10;;;;;;;;;;;;;;;9.45;84.04;98542.41;1742801;80;20521;-60
2022/09/26 03:43:37;;;;;;;;;;;;;;;9.42;84.00;98543.42;1738259;80;20185;-60
2022/09/26 03:46:05;;;;;;;;;;;;;;;9.38;83.89;98548.00;1746999;80;20493;-59
2022/09/26 03:48:33;;;;;;;;;;;;;;;9.35;83.85;98539.51;1731979;81;20442;-60
2022/09/26 03:51:08;;;;;;;;;;;;;;;9.29;83.84;98545.92;1740284;81;22040;-60
2022/09/26 03:53:37;;;;;;;;;;;;;;;9.24;83.83;98544.53;1728764;81;20183;-60
2022/09/26 03:56:09;;;;;;;;;;;;;;;9.17;83.85;98539.70;1746662;80;20494;-59
2022/09/26 03:58:36;;;;;;;;;;;;;;;9.13;83.96;98538.23;1740158;81;20190;-59
2022/09/26 04:01:09;;;;;;;;;;;;;;;9.11;83.95;98536.17;1719788;81;20149;-59
2022/09/26 04:03:37;;;;;;;;;;;;;;;9.08;83.98;98531.62;1750180;80;21874;-61
2022/09/26 04:06:07;;;;;;;;;;;;;;;9.05;84.00;98537.84;1743753;82;20495;-60
2022/09/26 04:08:35;;;;;;;;;;;;;;;9.03;84.00;98533.66;1741497;82;20506;-61
2022/09/26 04:11:10;;;;;;;;;;;;;;;8.98;84.05;98537.83;1739365;82;20420;-60
2022/09/26 04:13:37;;;;;;;;;;;;;;;8.96;84.08;98533.16;1743257;82;20433;-61
2022/09/26 04:16:05;;;;;;;;;;;;;;;8.99;84.14;98527.80;1736368;82;21009;-60
2022/09/26 04:18:32;;;;;;;;;;;;;;;8.98;84.19;98531.31;1743684;81;20289;-61
2022/09/26 04:21:01;;;;;;;;;;;;;;;9.01;84.22;98532.44;1741471;82;20203;-60
2022/09/26 04:23:30;;;;;;;;;;;;;;;9.03;84.26;98527.98;1742426;82;20167;-61
2022/09/26 04:26:05;;;;;;;;;;;;;;;9.05;84.36;98523.52;1743280;81;20235;-61
2022/09/26 04:28:32;;;;;;;;;;;;;;;9.08;84.39;98513.39;1738788;82;21981;-59
2022/09/26 04:30:59;;;;;;;;;;;;;;;9.11;84.38;98520.55;1739449;81;20993;-61
2022/09/26 04:33:27;;;;;;;;;;;;;;;9.13;84.46;98514.79;1740459;82;20175;-60
2022/09/26 04:35:54;;;;;;;;;;;;;;;9.17;84.52;98508.45;1740502;82;20159;-60
2022/09/26 04:38:21;;;;;;;;;;;;;;;9.21;84.57;98510.86;1741719;82;20128;-61
2022/09/26 04:40:47;;;;;;;;;;;;;;;9.22;84.57;98498.23;1742095;82;21423;-60
2022/09/26 04:43:16;;;;;;;;;;;;;;;9.25;84.65;98505.86;1741667;81;20156;-60
2022/09/26 04:45:43;;;;;;;;;;;;;;;9.27;84.67;98497.45;1740069;81;20136;-60
2022/09/26 04:48:10;;;;;;;;;;;;;;;9.29;84.70;98490.40;1741214;82;20092;-61
2022/09/26 04:50:36;;;;;;;;;;;;;;;9.34;84.73;98493.56;1751060;80;20101;-61
2022/09/26 04:53:05;;;;;;;;;;;;;;;9.36;84.72;98489.10;1772497;81;22342;-59
2022/09/26 04:55:32;;;;;;;;;;;;;;;9.38;84.71;98489.82;1772501;81;20904;-60
2022/09/26 04:57:58;;;;;;;;;;;;;;;9.40;84.75;98487.49;1773303;81;20232;-60
2022/09/26 05:00:25;;;;;;;;;;;;;;;9.44;84.78;98497.28;1764646;81;20126;-60
2022/09/26 05:02:52;;;;;;;;;;;;;;;9.47;84.78;98489.27;1763991;81;20083;-61
2022/09/26 05:05:20;;;;;;;;;;;;;;;9.50;84.76;98498.20;1760666;81;21047;-61
2022/09/26 05:07:46;;;;;;;;;;;;;;;9.52;84.76;98483.31;1765641;81;20106;-60
2022/09/26 05:10:13;;;;;;;;;;;;;;;9.56;84.77;98484.78;1767648;81;20631;-60
2022/09/26 05:12:39;;;;;;;;;;;;;;;9.60;84.80;98492.76;1762724;81;20118;-61
2022/09/26 05:15:08;;;;;;;;;;;;;;;9.63;84.82;98484.77;1763194;81;20141;-61
2022/09/26 05:17:36;;;;;;;;;;;;;;;9.69;84.90;98477.48;1772305;81;21111;-60
2022/09/26 05:20:07;;;;;;;;;;;;;;;9.71;84.87;98480.83;1756046;81;21091;-60
2022/09/26 05:22:34;;;;;;;;;;;;;;;9.74;84.89;98470.20;1761548;79;20196;-60
2022/09/26 05:27:46;;;;;;;;;;;;;;;9.81;85.01;98476.72;1774421;79;20451;-60
2022/09/26 05:30:12;;;;;;;;;;;;;;;9.83;85.04;98474.38;1755746;80;21113;-60
2022/09/26 05:32:39;;;;;;;;;;;;;;;9.87;85.11;98465.89;1765713;81;20467;-60
2022/09/26 05:35:08;;;;;;;;;;;;;;;9.89;85.15;98465.33;1744150;81;20429;-61
2022/09/26 05:37:34;;;;;;;;;;;;;;;9.90;85.26;98461.78;1767549;80;20118;-60
2022/09/26 05:42:45;;;;;;;;;;;;;;;9.95;85.33;98465.41;1739481;81;23038;-60
2022/09/26 05:45:14;;;;;;;;;;;;;;;9.97;85.36;98460.46;1758552;81;20181;-60
2022/09/26 05:47:40;;;;;;;;;;;;;;;9.98;85.50;98458.20;1759013;81;20427;-61
2022/09/26 05:50:10;;;;;;;;;;;;;;;10.00;85.50;98461.56;1754732;81;20236;-60
2022/09/26 05:52:38;;;;;;;;;;;;;;;10.03;85.60;98453.53;1745180;81;20165;-61
2022/09/26 05:55:06;;;;;;;;;;;;;;;10.12;85.63;98455.18;1735138;81;21133;-61
2022/09/26 05:57:32;;;;;;;;;;;;;;;10.18;85.59;98453.47;1739924;81;20179;-61
2022/09/26 05:59:59;;;;;;;;;;;;;;;10.27;85.61;98460.70;1727448;81;20180;-62
2022/09/26 06:02:25;;;;;;;;;;;;;;;10.47;85.81;98460.23;1738985;81;20109;-61
2022/09/26 06:04:52;;;;;;;;;;;;;;;10.64;85.64;98468.69;1734449;81;20405;-62
2022/09/26 06:07:18;;;;;;;;;;;;;;;10.74;85.25;98464.52;1734157;81;21200;-62
2022/09/26 06:09:44;;;;;;;;;;;;;;;10.74;84.93;98469.75;1734785;81;20112;-62
2022/09/26 06:12:11;;;;;;;;;;;;;;;10.72;84.86;98471.62;1744283;81;20105;-61
2022/09/26 06:14:37;;;;;;;;;;;;;;;10.69;84.90;98477.05;1743929;81;20325;-62
2022/09/26 06:17:04;;;;;;;;;;;;;;;10.68;84.98;98481.91;1737317;81;20243;-62
2022/09/26 06:19:31;;;;;;;;;;;;;;;10.74;85.20;98482.80;1741598;81;21002;-62
2022/09/26 06:22:00;;;;;;;;;;;;;;;10.81;85.23;98478.84;1732727;81;20140;-63
2022/09/26 06:24:26;;;;;;;;;;;;;;;10.86;85.27;98483.26;1730006;81;20135;-60
2022/09/26 06:26:53;;;;;;;;;;;;;;;10.95;85.40;98483.96;1748224;81;20144;-61
2022/09/26 06:29:19;;;;;;;;;;;;;;;11.04;85.15;98489.50;1740853;81;20076;-60
2022/09/26 06:31:46;;;;;;;;;;;;;;;11.11;85.13;98490.73;1744049;81;21132;-61
2022/09/26 06:34:14;;;;;;;;;;;;;;;11.21;85.18;98499.61;1751225;81;20478;-60
2022/09/26 06:36:41;;;;;;;;;;;;;;;11.36;85.27;98495.91;1746444;81;20108;-61
2022/09/26 06:39:07;;;;;;;;;;;;;;;11.63;85.77;98500.16;1736656;81;20445;-61
2022/09/26 06:41:34;;;;;;;;;;;;;;;12.09;85.90;98496.87;1722566;81;20196;-61
2022/09/26 06:44:03;;;;;;;;;;;;;;;12.37;85.12;98492.23;1732297;81;21173;-61
2022/09/26 06:46:30;;;;;;;;;;;;;;;12.66;84.89;98485.66;1736568;82;20178;-61
2022/09/26 06:48:57;;;;;;;;;;;;;;;12.83;84.54;98487.48;1734633;81;20104;-61
2022/09/26 06:51:23;;;;;;;;;;;;;;;12.88;84.10;98481.38;1727274;81;20145;-61
2022/09/26 06:53:50;;;;;;;;;;;;;;;13.02;84.30;98481.16;1724502;81;20433;-61
2022/09/26 06:56:17;;;;;;;;;;;;;;;13.28;84.62;98477.05;1721376;82;21149;-62
2022/09/26 06:58:44;;;;;;;;;;;;;;;13.67;84.82;98477.00;1727292;81;20176;-62
2022/09/26 07:01:11;;;;;;;;;;;;;;;14.04;84.38;98468.30;1729163;81;20135;-61
2022/09/26 07:03:37;;;;;;;;;;;;;;;14.38;84.59;98468.16;1718576;82;20504;-62
2022/09/26 07:06:04;;;;;;;;;;;;;;;14.58;83.64;98467.84;1738735;81;20161;-61
2022/09/26 07:08:31;;;;;;;;;;;;;;;14.71;83.53;98465.02;1734888;81;22303;-62
2022/09/26 07:11:00;;;;;;;;;;;;;;;14.93;83.92;98455.67;1743625;81;20450;-62
2022/09/26 07:13:28;;;;;;;;;;;;;;;15.21;83.65;98455.45;1733959;81;20444;-62
2022/09/26 07:15:57;;;;;;;;;;;;;;;15.43;83.71;98453.10;1724348;81;20077;-61
2022/09/26 07:18:23;;;;;;;;;;;;;;;15.79;83.62;98452.15;1743774;81;20136;-62
2022/09/26 07:20:51;;;;;;;;;;;;;;;15.99;82.83;98446.91;1734806;81;21215;-62
2022/09/26 07:23:17;;;;;;;;;;;;;;;16.20;83.37;98451.56;1724059;82;20092;-62
2022/09/26 07:25:45;;;;;;;;;;;;;;;16.62;83.71;98439.37;1742246;81;20128;-62
2022/09/26 07:28:12;;;;;;;;;;;;;;;16.93;83.50;98447.92;1733616;81;20100;-62
2022/09/26 07:30:38;;;;;;;;;;;;;;;17.07;82.54;98443.98;1739098;81;20165;-62
2022/09/26 07:33:05;;;;;;;;;;;;;;;17.03;81.78;98447.91;1744881;81;21537;-62
2022/09/26 07:35:34;;;;;;;;;;;;;;;17.00;82.35;98445.56;1734550;81;20101;-62
2022/09/26 07:38:00;;;;;;;;;;;;;;;17.00;81.86;98445.56;1728057;81;20465;-62
2022/09/26 07:40:27;;;;;;;;;;;;;;;16.91;82.04;98447.23;1728699;81;20123;-63
2022/09/26 07:43:03;;;;;;;;;;;;;;;16.94;81.75;98453.56;1736547;81;20108;-62
2022/09/26 07:51:00;;;;;;;;;;;;;;;17.16;80.85;98460.75;1725514;81;20138;-62
2022/09/26 07:53:27;;;;;;;;;;;;;;;17.13;81.24;98459.23;1742193;82;20104;-62
2022/09/26 07:56:07;;;;;;;;;;;;;;;17.16;81.03;98454.98;1749030;82;20158;-62
2022/09/26 07:58:38;;;;;;;;;;;;;;;17.25;81.10;98448.49;1740071;82;21216;-62
2022/09/26 08:01:10;;;;;;;;;;;;;;;17.28;80.71;98460.06;1735614;82;20474;-62
2022/09/26 08:03:38;;;;;;;;;;;;;;;17.11;80.15;98456.39;1749342;82;20099;-62
2022/09/26 08:06:06;;;;;;;;;;;;;;;16.83;79.98;98462.10;1744253;82;20766;-62
2022/09/26 08:08:34;;;;;;;;;;;;;;;16.55;79.67;98464.62;1745894;82;20250;-63
2022/09/26 08:11:04;;;;;;;;;;;;;;;16.46;80.17;98462.84;1735353;81;21598;-62
2022/09/26 08:13:32;;;;;;;;;;;;;;;16.41;80.11;98459.78;1741456;82;20197;-62
2022/09/26 08:16:05;;;;;;;;;;;;;;;16.55;80.26;98459.34;1731598;81;20148;-62
2022/09/26 08:18:32;;;;;;;;;;;;;;;16.52;79.62;98464.91;1723803;82;20105;-63
2022/09/26 08:20:58;;;;;;;;;;;;;;;16.35;78.87;98469.08;1728249;82;20124;-62
2022/09/26 08:23:25;;;;;;;;;;;;;;;16.20;78.96;98476.58;1699757;82;21215;-62
2022/09/26 08:25:52;;;;;;;;;;;;;;;16.07;78.55;98478.64;1727192;82;20115;-62
2022/09/26 08:28:18;;;;;;;;;;;;;;;15.89;78.66;98476.69;1732119;81;20208;-62
2022/09/26 08:30:45;;;;;;;;;;;;;;;15.88;78.64;98475.04;1727641;82;20103;-61
2022/09/26 08:33:12;;;;;;;;;;;;;;;16.05;79.56;98471.39;1733630;81;20174;-62
2022/09/26 08:35:38;;;;;;;;;;;;;;;16.24;79.04;98471.36;1737796;82;21128;-62
2022/09/26 08:38:05;;;;;;;;;;;;;;;16.26;78.22;98468.12;1730919;82;20159;-62
2022/09/26 08:40:36;;;;;;;;;;;;;;;16.27;78.49;98472.43;1750503;82;20126;-61
2022/09/26 08:43:24;;;;;;;;;;;;;;;16.42;78.46;98482.55;1749147;81;20103;-62
2022/09/26 08:48:55;;;;;;;;;;;;;;;16.63;78.41;98477.09;1711079;82;21181;-62
2022/09/26 08:51:25;;;;;;;;;;;;;;;16.71;77.97;98478.05;1736131;82;20195;-61
2022/09/26 08:53:58;;;;;;;;;;;;;;;16.66;77.72;98472.37;1730995;81;20205;-61
2022/09/26 08:56:30;;;;;;;;;;;;;;;16.52;77.26;98479.39;1729060;81;20441;-61
2022/09/26 08:58:57;;;;;;;;;;;;;;;16.53;77.26;98472.68;1734557;81;20089;-61
2022/09/26 09:01:27;;;;;;;;;;;;;;;16.44;76.92;98473.53;1706707;82;21142;-62
2022/09/26 09:03:57;;;;;;;;;;;;;;;16.42;77.34;98466.73;1712351;82;20129;-63
2022/09/26 09:06:26;;;;;;;;;;;;;;;16.52;77.13;98463.59;1730068;81;20519;-62
2022/09/26 09:08:55;;;;;;;;;;;;;;;16.52;76.69;98466.22;1727238;81;20408;-62
2022/09/26 09:11:43;;;;;;;;;;;;;;;16.49;76.38;98465.19;1729802;82;20101;-62
2022/09/26 09:14:25;;;;;;;;;;;;;;;16.52;76.52;98464.91;1735702;81;22070;-63
2022/09/26 09:17:16;;;;;;;;;;;;;;;16.57;76.58;98461.36;1732425;81;20101;-64
2022/09/26 09:20:03;;;;;;;;;;;;;;;16.49;75.89;98467.82;1715407;81;20647;-63
2022/09/26 09:22:57;;;;;;;;;;;;;;;16.50;76.25;98472.14;1733202;81;20094;-61
2022/09/26 09:25:56;;;;;;;;;;;;;;;16.68;76.28;98470.42;1746446;81;20212;-61
2022/09/26 09:28:45;;;;;;;;;;;;;;;16.80;75.84;98471.13;1727886;81;21834;-61
2022/09/26 09:31:14;;;;;;;;;;;;;;;16.90;75.75;98471.12;1725789;81;20128;-62
2022/09/26 09:33:52;;;;;;;;;;;;;;;17.05;75.43;98478.89;1732286;81;20190;-62
2022/09/26 09:36:24;;;;;;;;;;;;;;;17.15;75.18;98474.92;1734267;81;20506;-62
2022/09/26 09:38:52;;;;;;;;;;;;;;;17.10;74.73;98470.56;1732023;81;20124;-62
2022/09/26 09:41:28;;;;;;;;;;;;;;;17.01;74.56;98474.90;1733496;81;21139;-63
2022/09/26 09:43:58;;;;;;;;;;;;;;;17.08;75.06;98470.69;1735043;81;20120;-62
2022/09/26 09:46:28;;;;;;;;;;;;;;;17.11;75.33;98473.07;1734641;81;20093;-62
2022/09/26 09:49:10;;;;;;;;;;;;;;;17.20;75.32;98473.52;1733934;81;20335;-61
2022/09/26 09:51:54;;;;;;;;;;;;;;;17.20;74.78;98473.52;1733901;81;20135;-61
2022/09/26 09:54:47;;;;;;;;;;;;;;;17.14;74.30;98472.78;1758853;80;23204;-60
2022/09/26 09:57:26;;;;;;;;;;;;;;;17.03;74.26;98479.55;1748992;81;20503;-60
2022/09/26 10:00:15;;;;;;;;;;;;;;;16.95;73.87;98487.34;1739263;82;20297;-62
2022/09/26 10:02:57;;;;;;;;;;;;;;;16.80;73.87;98480.84;1704609;82;20097;-61
2022/09/26 10:05:45;;;;;;;;;;;;;;;16.88;73.90;98478.33;1776170;80;20081;-62
2022/09/26 10:08:17;;;;;;;;;;;;;;;16.92;74.12;98470.49;1770098;79;21121;-63
2022/09/26 10:10:47;;;;;;;;;;;;;;;17.02;74.43;98475.72;1760222;81;20183;-63
2022/09/26 10:13:14;;;;;;;;;;;;;;;17.29;74.65;98470.98;1751000;81;20165;-63
2022/09/26 10:15:56;;;;;;;;;;;;;;;17.56;74.63;98473.62;1763102;81;20124;-62
2022/09/26 10:18:23;;;;;;;;;;;;;;;17.80;74.19;98472.27;1689869;84;20145;-61
2022/09/26 10:20:53;;;;;;;;;;;;;;;17.71;73.58;98475.77;1698978;83;21870;-60
2022/09/26 10:23:38;;;;;;;;;;;;;;;17.62;73.43;98480.95;1699371;84;20099;-61
2022/09/26 10:26:07;;;;;;;;;;;;;;;17.59;73.30;98474.66;1684343;84;20158;-61
2022/09/26 10:28:51;;;;;;;;;;;;;;;17.55;73.13;98473.27;1697390;84;20212;-61
2022/09/26 10:31:28;;;;;;;;;;;;;;;17.60;73.41;98470.20;1700126;84;20787;-60
2022/09/26 10:33:59;;;;;;;;;;;;;;;17.57;72.63;98470.00;1710697;83;21139;-60
2022/09/26 10:36:28;;;;;;;;;;;;;;;17.61;72.79;98476.63;1698455;84;20133;-61
2022/09/26 10:41:45;;;;;;;;;;;;;;;17.82;72.60;98472.95;1703347;83;20468;-61
2022/09/26 10:44:26;;;;;;;;;;;;;;;17.70;71.85;98466.16;1691742;84;20103;-61
2022/09/26 10:46:56;;;;;;;;;;;;;;;17.48;71.68;98465.61;1685511;84;21818;-61
2022/09/26 10:49:30;;;;;;;;;;;;;;;17.33;72.02;98468.37;1700123;83;20586;-61
2022/09/26 10:51:59;;;;;;;;;;;;;;;17.14;71.58;98471.45;1699380;84;20102;-61
2022/09/26 10:54:39;;;;;;;;;;;;;;;16.99;71.62;98459.70;1705600;81;20145;-61
2022/09/26 10:57:08;;;;;;;;;;;;;;;16.77;71.41;98465.64;1762157;81;20157;-61
2022/09/26 10:59:33;;;;;;;;;;;;;;;16.52;71.17;98467.53;1759814;81;21283;-61
2022/09/26 11:02:02;;;;;;;;;;;;;;;16.26;71.30;98468.12;1725201;80;20149;-61
2022/09/26 11:07:28;;;;;;;;;;;;;;;16.01;71.48;98468.66;1752664;80;20447;-61
2022/09/26 11:09:58;;;;;;;;;;;;;;;15.85;71.60;98471.37;1753688;81;20158;-61
2022/09/26 11:12:27;;;;;;;;;;;;;;;15.78;71.82;98474.18;1741452;80;21120;-61
2022/09/26 11:14:56;;;;;;;;;;;;;;;15.74;72.00;98471.48;1756778;81;20533;-61
2022/09/26 11:17:46;;;;;;;;;;;;;;;15.73;72.01;98472.92;1763354;80;20232;-62
2022/09/26 11:20:36;;;;;;;;;;;;;;;15.83;72.30;98471.98;1753413;81;20090;-62
2022/09/26 11:23:13;;;;;;;;;;;;;;;15.94;72.29;98474.97;1742639;81;20300;-61
2022/09/26 11:25:52;;;;;;;;;;;;;;;16.07;72.21;98470.74;1742428;81;22332;-61
2022/09/26 11:28:25;;;;;;;;;;;;;;;16.05;71.36;98467.44;1750294;81;20420;-60
2022/09/26 11:30:55;;;;;;;;;;;;;;;15.99;71.55;98470.59;1740826;81;20154;-61
2022/09/26 11:33:23;;;;;;;;;;;;;;;15.96;71.26;98469.55;1744992;81;20161;-60
2022/09/26 11:36:21;;;;;;;;;;;;;;;16.09;71.75;98460.91;1728468;81;20114;-61
2022/09/26 11:38:56;;;;;;;;;;;;;;;16.30;71.64;98458.98;1666887;85;21932;-61
2022/09/26 11:41:38;;;;;;;;;;;;;;;16.56;71.29;98464.98;1709713;84;20353;-61
2022/09/26 11:44:30;;;;;;;;;;;;;;;16.67;70.97;98462.69;1708896;84;20109;-61
2022/09/26 11:47:14;;;;;;;;;;;;;;;16.83;71.08;98459.47;1682931;83;20218;-61
2022/09/26 11:49:51;;;;;;;;;;;;;;;16.90;70.06;98464.52;1627576;86;20175;-61
2022/09/26 11:52:54;;;;;;;;;;;;;;;16.92;70.54;98457.31;1627410;86;21263;-61
2022/09/26 11:55:53;;;;;;;;;;;;;;;17.02;70.54;98466.49;1626839;88;20421;-61
2022/09/26 11:58:35;;;;;;;;;;;;;;;17.07;70.30;98465.09;1623819;86;20177;-61
2022/09/26 12:01:16;;;;;;;;;;;;;;;16.86;69.47;98457.86;1610249;86;20164;-61
2022/09/26 12:04:12;;;;;;;;;;;;;;;16.80;69.37;98457.12;1615671;87;20231;-62
2022/09/26 12:06:45;;;;;;;;;;;;;;;16.66;68.85;98459.19;1609531;87;21201;-60
2022/09/26 12:09:19;;;;;;;;;;;;;;;16.62;68.99;98461.78;1623828;87;20174;-61
2022/09/26 12:11:52;;;;;;;;;;;;;;;16.72;69.08;98457.79;1663821;84;20093;-62
2022/09/26 12:14:45;;;;;;;;;;;;;;;16.80;68.63;98455.80;1656635;84;20228;-61
2022/09/26 12:17:25;;;;;;;;;;;;;;;16.92;68.87;98458.62;1657625;86;20122;-61
2022/09/26 12:19:58;;;;;;;;;;;;;;;16.96;68.09;98449.44;1657420;84;21113;-61
2022/09/26 12:22:34;;;;;;;;;;;;;;;16.95;67.59;98453.06;1657514;84;20164;-61
2022/09/26 12:25:14;;;;;;;;;;;;;;;16.93;67.73;98452.38;1654662;84;20154;-62
2022/09/26 12:28:07;;;;;;;;;;;;;;;16.93;67.78;98447.92;1665125;84;20133;-62
2022/09/26 12:30:58;;;;;;;;;;;;;;;16.91;67.73;98454.31;1668996;84;20179;-61
2022/09/26 12:33:34;;;;;;;;;;;;;;;16.84;67.56;98450.60;1666142;84;21097;-62
2022/09/26 12:36:25;;;;;;;;;;;;;;;16.85;67.74;98446.98;1590399;89;20467;-61
2022/09/26 12:39:04;;;;;;;;;;;;;;;16.84;67.22;98451.92;1595577;88;20160;-62
2022/09/26 12:41:59;;;;;;;;;;;;;;;16.78;66.66;98450.20;1628972;87;20158;-61
2022/09/26 12:44:32;;;;;;;;;;;;;;;16.64;67.10;98446.66;1625609;86;20573;-61
2022/09/26 12:47:26;;;;;;;;;;;;;;;16.47;66.38;98452.66;1636032;86;22029;-61
2022/09/26 12:50:08;;;;;;;;;;;;;;;16.33;65.81;98453.43;1641901;86;20226;-60
2022/09/26 12:52:55;;;;;;;;;;;;;;;16.12;65.90;98450.10;1591380;88;20420;-61
2022/09/26 12:55:40;;;;;;;;;;;;;;;16.12;66.16;98446.16;1595200;88;20175;-62
2022/09/26 12:58:29;;;;;;;;;;;;;;;16.03;65.73;98445.67;1552078;91;20533;-61
2022/09/26 13:01:10;;;;;;;;;;;;;;;16.00;66.03;98448.59;1551898;91;21164;-61
2022/09/26 13:04:05;;;;;;;;;;;;;;;16.02;65.80;98446.63;1567647;91;20579;-62
2022/09/26 13:06:57;;;;;;;;;;;;;;;15.94;65.53;98454.41;1552800;91;20468;-62
2022/09/26 13:09:32;;;;;;;;;;;;;;;15.92;65.64;98449.76;1523643;93;20594;-61
2022/09/26 13:12:15;;;;;;;;;;;;;;;16.00;65.50;98445.95;1530485;91;20536;-61
2022/09/26 13:14:59;;;;;;;;;;;;;;;16.03;65.65;98443.04;1546789;91;21495;-61
2022/09/26 13:17:40;;;;;;;;;;;;;;;16.09;65.51;98445.12;1546307;91;20244;-61
2022/09/26 13:20:28;;;;;;;;;;;;;;;16.18;65.57;98442.95;1550864;91;20175;-61
2022/09/26 13:23:13;;;;;;;;;;;;;;;16.32;65.79;98441.22;1539549;91;20173;-61
2022/09/26 13:25:52;;;;;;;;;;;;;;;16.38;65.53;98434.55;1506539;94;20255;-61
2022/09/26 13:28:22;;;;;;;;;;;;;;;16.56;65.52;98429.41;1540181;91;21099;-62
2022/09/26 13:30:56;;;;;;;;;;;;;;;16.51;64.89;98427.19;1574980;90;20215;-62
2022/09/26 13:33:29;;;;;;;;;;;;;;;16.36;64.87;98431.74;1591080;87;20193;-62
2022/09/26 13:35:58;;;;;;;;;;;;;;;16.30;65.17;98436.59;1620092;86;20184;-61
2022/09/26 13:38:46;;;;;;;;;;;;;;;16.25;65.17;98437.49;1636391;86;20164;-61
2022/09/26 13:41:27;;;;;;;;;;;;;;;16.21;65.23;98438.73;1588063;89;20759;-62
2022/09/26 13:44:09;;;;;;;;;;;;;;;16.26;65.23;98440.95;1582863;89;20783;-63